Time;durP1;ratioP1;P1;durP2;ratioP2;P2;SDS_P1;SDS_P2;PMS_P1;PMS_P2;Temp;Humidity;BMP_temperature;BMP_pressure;BME280_temperature;BME280_humidity;BME280_pressure;Samples;Min_cycle;Max_cycle;Signal;HPM_P1;HPM_P2
2022/01/31 00:01:47;;;;;;;27.63;4.80;;;;;;;2.41;100.00;98492.41;10318174;28;20058;-77
2022/01/31 00:06:50;;;;;;;29.75;4.57;;;;;;;2.39;100.00;98502.31;10316007;28;20042;-78
2022/01/31 00:11:58;;;;;;;26.77;4.97;;;;;;;2.40;100.00;98489.88;10316159;28;20054;-78
2022/01/31 00:17:07;;;;;;;21.48;4.72;;;;;;;2.36;100.00;98462.66;10321380;28;20567;-76
2022/01/31 00:22:12;;;;;;;28.90;5.18;;;;;;;2.35;100.00;98455.63;10316120;28;20102;-78
2022/01/31 00:27:15;;;;;;;25.80;4.45;;;;;;;2.35;100.00;98429.03;10329291;28;20528;-76
2022/01/31 00:32:19;;;;;;;24.08;4.88;;;;;;;2.34;100.00;98416.72;10321674;28;20085;-77
2022/01/31 00:37:22;;;;;;;24.85;4.57;;;;;;;2.30;100.00;98394.81;10321977;28;20124;-77
2022/01/31 00:42:27;;;;;;;24.08;4.45;;;;;;;2.31;100.00;98369.94;10317679;28;20494;-77
2022/01/31 00:47:34;;;;;;;23.35;4.53;;;;;;;2.25;100.00;98348.25;10303387;28;20129;-79
2022/01/31 00:52:39;;;;;;;25.70;4.53;;;;;;;2.20;100.00;98321.16;10315181;28;20051;-77
2022/01/31 00:57:42;;;;;;;18.40;4.38;;;;;;;2.12;100.00;98316.38;10313932;28;20050;-80
2022/01/31 01:02:47;;;;;;;27.83;5.00;;;;;;;2.14;100.00;98270.16;10297226;28;20050;-79
2022/01/31 01:07:52;;;;;;;28.25;4.43;;;;;;;2.13;100.00;98233.91;10301123;28;20042;-80
2022/01/31 01:12:55;;;;;;;28.10;5.10;;;;;;;2.11;100.00;98238.47;10317178;28;20047;-79
2022/01/31 01:18:00;;;;;;;22.02;4.70;;;;;;;2.08;100.00;98220.09;10316817;28;20042;-78
2022/01/31 01:23:03;;;;;;;26.70;4.85;;;;;;;2.00;100.00;98222.47;10304315;28;20047;-79
2022/01/31 01:28:06;;;;;;;26.48;4.55;;;;;;;1.91;100.00;98202.72;10305964;28;20503;-80
2022/01/31 01:33:18;;;;;;;24.30;4.68;;;;;;;1.85;100.00;98192.56;10301469;28;20492;-79
2022/01/31 01:38:28;;;;;;;20.83;4.50;;;;;;;1.85;100.00;98171.31;10304540;28;20162;-79
2022/01/31 01:43:32;;;;;;;28.05;5.10;;;;;;;1.81;100.00;98161.84;10303148;28;20069;-79
2022/01/31 01:48:37;;;;;;;22.55;4.30;;;;;;;1.79;100.00;98151.34;10296998;28;20058;-79
2022/01/31 01:53:40;;;;;;;22.75;4.13;;;;;;;1.74;100.00;98113.66;10299599;28;20070;-79
2022/01/31 01:58:44;;;;;;;23.33;4.40;;;;;;;1.74;100.00;98094.22;10305321;28;20089;-80
2022/01/31 02:03:49;;;;;;;26.67;4.80;;;;;;;1.74;100.00;98072.97;10294044;28;20164;-80
2022/01/31 02:08:53;;;;;;;25.00;4.78;;;;;;;1.79;100.00;98050.44;10313906;28;20406;-79
2022/01/31 02:14:05;;;;;;;24.65;4.57;;;;;;;1.73;100.00;98029.63;10311260;28;20050;-78
2022/01/31 02:19:27;;;;;;;23.17;4.38;;;;;;;1.68;100.00;98016.69;10319099;28;20121;-79
2022/01/31 02:24:51;;;;;;;27.67;4.75;;;;;;;1.65;100.00;98024.03;10316210;28;20056;-77
2022/01/31 02:29:56;;;;;;;19.52;4.15;;;;;;;1.64;100.00;98015.25;10332882;28;20116;-79
2022/01/31 02:35:01;;;;;;;22.88;4.53;;;;;;;1.64;100.00;98014.38;10304751;28;20502;-79
2022/01/31 02:40:08;;;;;;;25.90;4.88;;;;;;;1.60;100.00;98003.16;10312133;28;20070;-79
2022/01/31 02:45:11;;;;;;;26.70;4.63;;;;;;;1.58;100.00;97994.44;10327645;28;20050;-77
2022/01/31 02:50:16;;;;;;;24.08;4.47;;;;;;;1.57;100.00;97965.38;10299696;28;20145;-79
2022/01/31 02:55:20;;;;;;;21.83;4.28;;;;;;;1.61;100.00;97940.25;10297744;28;20086;-79
2022/01/31 03:00:23;;;;;;;24.67;4.60;;;;;;;1.65;100.00;97918.66;10306831;28;20061;-79
2022/01/31 03:05:47;;;;;;;19.55;4.25;;;;;;;1.64;100.00;97887.78;10321696;28;20081;-79
2022/01/31 03:10:53;;;;;;;24.20;4.70;;;;;;;1.62;100.00;97894.16;10312047;28;20928;-77
2022/01/31 03:16:10;;;;;;;21.65;4.38;;;;;;;1.63;100.00;97885.25;10297342;28;20455;-79
2022/01/31 03:21:36;;;;;;;24.77;5.13;;;;;;;1.60;100.00;97846.50;10312904;28;20137;-79
2022/01/31 03:26:42;;;;;;;22.17;4.65;;;;;;;1.57;100.00;97848.56;10307025;28;20039;-79
2022/01/31 03:31:45;;;;;;;23.17;4.93;;;;;;;1.54;100.00;97818.63;10318577;28;20082;-80
2022/01/31 03:36:48;;;;;;;22.35;4.88;;;;;;;1.52;100.00;97794.00;10295974;28;20054;-79
2022/01/31 03:41:56;;;;;;;29.98;5.00;;;;;;;1.52;100.00;97756.84;10300251;28;20047;-79
2022/01/31 03:46:59;;;;;;;23.15;4.30;;;;;;;1.48;100.00;97734.13;10293725;28;20076;-79
2022/01/31 03:52:03;;;;;;;25.23;4.25;;;;;;;1.38;100.00;97726.06;10293937;28;20145;-77
2022/01/31 03:57:16;;;;;;;20.92;4.35;;;;;;;1.34;100.00;97716.66;10289911;28;20061;-79
2022/01/31 04:02:45;;;;;;;21.23;3.97;;;;;;;1.32;100.00;97699.19;10281716;28;20066;-77
2022/01/31 04:08:16;;;;;;;21.52;4.22;;;;;;;1.24;100.00;97681.19;10321254;28;20058;-78
2022/01/31 04:13:20;;;;;;;21.92;4.28;;;;;;;1.20;100.00;97663.81;10314526;28;20388;-79
2022/01/31 04:18:23;;;;;;;19.80;4.10;;;;;;;1.16;100.00;97665.88;10313722;28;20378;-78
2022/01/31 04:23:28;;;;;;;24.15;4.63;;;;;;;1.17;100.00;97649.00;10320142;28;20058;-79
2022/01/31 04:28:39;;;;;;;27.65;4.78;;;;;;;1.14;100.00;97645.75;10316149;28;20075;-79
2022/01/31 04:33:45;;;;;;;24.65;4.63;;;;;;;1.15;100.00;97645.63;10319706;28;20503;-77
2022/01/31 04:38:49;;;;;;;21.77;4.00;;;;;;;1.19;100.00;97648.88;10318485;28;20046;-79
2022/01/31 04:43:57;;;;;;;20.42;4.13;;;;;;;1.21;100.00;97629.22;10318112;28;20076;-78
2022/01/31 04:49:00;;;;;;;24.98;4.90;;;;;;;1.23;100.00;97584.81;10321707;28;20077;-78
2022/01/31 04:54:03;;;;;;;20.27;4.15;;;;;;;1.20;100.00;97555.03;10320072;28;20058;-78
2022/01/31 04:59:08;;;;;;;22.67;4.50;;;;;;;1.19;100.00;97538.28;10324759;28;20100;-77
2022/01/31 05:04:11;;;;;;;24.85;4.60;;;;;;;1.19;100.00;97498.50;10310290;28;20097;-78
2022/01/31 05:09:14;;;;;;;20.73;4.15;;;;;;;1.20;100.00;97483.41;10316643;28;20387;-79
2022/01/31 05:14:18;;;;;;;18.40;3.95;;;;;;;1.20;100.00;97455.09;10315960;28;20097;-77
2022/01/31 05:19:21;;;;;;;16.73;4.22;;;;;;;1.19;100.00;97436.63;10321779;28;20046;-78
2022/01/31 05:24:24;;;;;;;20.67;4.00;;;;;;;1.25;100.00;97414.03;10316784;28;20113;-77
2022/01/31 05:29:28;;;;;;;19.35;4.38;;;;;;;1.20;100.00;97401.16;10329162;28;20058;-79
2022/01/31 05:34:31;;;;;;;18.98;4.13;;;;;;;1.19;100.00;97403.00;10319516;28;20108;-77
2022/01/31 05:39:34;;;;;;;20.45;4.50;;;;;;;1.23;100.00;97385.81;10320356;28;20108;-78
2022/01/31 05:44:39;;;;;;;21.83;4.10;;;;;;;1.25;100.00;97374.25;10317808;28;20045;-76
2022/01/31 05:49:42;;;;;;;18.83;3.70;;;;;;;1.26;100.00;97357.38;10311392;28;20046;-77
2022/01/31 05:54:45;;;;;;;16.33;3.35;;;;;;;1.30;100.00;97348.19;10319417;28;20046;-77
2022/01/31 05:59:50;;;;;;;20.92;4.07;;;;;;;1.30;100.00;97326.97;10316717;28;20058;-76
2022/01/31 06:04:53;;;;;;;16.15;3.22;;;;;;;1.30;100.00;97306.56;10317736;28;20466;-76
2022/01/31 06:09:56;;;;;;;15.43;3.65;;;;;;;1.30;100.00;97280.03;10316512;28;20227;-76
2022/01/31 06:15:01;;;;;;;12.85;3.10;;;;;;;1.27;100.00;97266.19;10309882;28;20387;-77
2022/01/31 06:20:05;;;;;;;17.02;3.60;;;;;;;1.30;100.00;97264.09;10314666;28;20049;-77
2022/01/31 06:25:09;;;;;;;13.52;3.03;;;;;;;1.34;100.00;97265.53;10309650;28;20059;-76
2022/01/31 06:30:16;;;;;;;15.30;3.38;;;;;;;1.36;100.00;97262.72;10317270;28;20125;-76
2022/01/31 06:35:22;;;;;;;18.05;3.65;;;;;;;1.37;100.00;97256.47;10301580;28;20045;-76
2022/01/31 06:40:25;;;;;;;15.82;3.45;;;;;;;1.42;100.00;97259.56;10317124;28;20499;-77
2022/01/31 06:45:29;;;;;;;13.93;3.10;;;;;;;1.38;100.00;97255.50;10308464;28;20471;-76
2022/01/31 06:50:32;;;;;;;14.20;3.30;;;;;;;1.33;100.00;97257.72;10315001;28;20406;-76
2022/01/31 06:55:36;;;;;;;21.25;3.75;;;;;;;1.14;100.00;97267.22;10307191;28;20711;-75
2022/01/31 07:00:41;;;;;;;17.05;3.17;;;;;;;0.99;100.00;97250.81;10309293;28;20050;-76
2022/01/31 07:05:45;;;;;;;17.30;3.80;;;;;;;0.87;100.00;97252.72;10296863;28;20081;-75
2022/01/31 07:10:52;;;;;;;19.85;3.83;;;;;;;0.69;100.00;97238.31;10314047;28;20484;-74
2022/01/31 07:15:56;;;;;;;21.73;3.97;;;;;;;0.65;100.00;97226.31;10311809;28;20046;-75
2022/01/31 07:20:59;;;;;;;17.00;3.95;;;;;;;0.65;100.00;97221.03;10313471;28;20050;-75
2022/01/31 07:26:02;;;;;;;18.30;4.03;;;;;;;0.56;100.00;97207.53;10308376;28;20456;-75
2022/01/31 07:31:07;;;;;;;20.45;4.40;;;;;;;0.55;100.00;97195.25;10313065;28;20044;-75
2022/01/31 07:36:10;;;;;;;21.50;4.20;;;;;;;0.56;100.00;97181.03;10309842;28;20046;-74
2022/01/31 07:41:14;;;;;;;18.58;4.32;;;;;;;0.55;100.00;97184.66;10314640;28;20039;-75
2022/01/31 07:46:19;;;;;;;17.85;4.65;;;;;;;0.53;100.00;97170.69;10292041;28;20117;-74
2022/01/31 07:51:22;;;;;;;20.27;4.88;;;;;;;0.55;100.00;97155.50;10306365;28;20113;-74
2022/01/31 07:56:26;;;;;;;17.88;5.07;;;;;;;0.59;100.00;97149.00;10309590;28;20049;-74
2022/01/31 08:01:30;;;;;;;15.50;4.90;;;;;;;0.60;100.00;97140.06;10308145;28;20056;-75
2022/01/31 08:06:37;;;;;;;17.90;5.25;;;;;;;0.56;100.00;97120.09;10305989;28;20117;-75
2022/01/31 08:11:45;;;;;;;18.27;4.13;;;;;;;0.57;100.00;97119.13;10309806;28;20074;-74
2022/01/31 08:16:49;;;;;;;13.48;4.53;;;;;;;0.59;100.00;97113.69;10315661;28;20060;-75
2022/01/31 08:21:54;;;;;;;13.85;4.57;;;;;;;0.57;100.00;97103.22;10313894;28;20066;-74
2022/01/31 08:26:57;;;;;;;15.93;4.50;;;;;;;0.55;100.00;97101.69;10318828;28;20488;-74
2022/01/31 08:32:06;;;;;;;12.65;4.10;;;;;;;0.52;100.00;97078.94;10310476;28;20621;-74
2022/01/31 08:37:09;;;;;;;12.05;4.63;;;;;;;0.45;100.00;97078.63;10318993;28;20406;-74
2022/01/31 08:42:12;;;;;;;12.93;4.15;;;;;;;0.40;100.00;97069.41;10322735;28;20048;-75
2022/01/31 08:47:18;;;;;;;9.55;4.07;;;;;;;0.38;100.00;97066.03;10319232;28;20041;-75
2022/01/31 08:52:21;;;;;;;10.50;4.25;;;;;;;0.31;100.00;97055.13;10313126;28;20094;-74
2022/01/31 08:57:24;;;;;;;10.68;4.85;;;;;;;0.32;100.00;97048.00;10297382;28;20519;-75
2022/01/31 09:02:38;;;;;;;7.80;4.45;;;;;;;0.30;100.00;97043.66;10295069;28;20042;-74
2022/01/31 09:07:41;;;;;;;6.68;3.40;;;;;;;0.26;100.00;97047.56;10292847;28;20054;-74
2022/01/31 09:12:44;;;;;;;4.50;2.70;;;;;;;0.28;100.00;97036.84;10296779;28;20495;-74
2022/01/31 09:17:48;;;;;;;5.93;2.10;;;;;;;0.27;100.00;97041.31;10303685;28;20034;-74
2022/01/31 09:22:51;;;;;;;2.20;1.90;;;;;;;0.33;100.00;97036.44;10291782;28;20053;-74
2022/01/31 09:27:54;;;;;;;2.58;1.90;;;;;;;0.37;100.00;97020.13;10304699;28;20066;-75
2022/01/31 09:32:59;;;;;;;2.05;1.45;;;;;;;0.90;100.00;97023.56;10327369;28;20052;-81
2022/01/31 09:38:02;;;;;;;1.58;1.10;;;;;;;0.79;100.00;97021.84;10319275;28;20050;-75
2022/01/31 09:43:26;;;;;;;2.13;1.10;;;;;;;0.82;100.00;97016.28;10301155;28;20050;-75
2022/01/31 09:48:33;;;;;;;3.75;1.10;;;;;;;0.95;100.00;97010.72;10307353;28;20038;-75
2022/01/31 09:53:39;;;;;;;1.90;1.17;;;;;;;1.13;100.00;97013.56;10307398;28;20548;-75
2022/01/31 09:58:46;;;;;;;1.77;1.13;;;;;;;1.25;100.00;97013.44;10307913;28;21208;-74
2022/01/31 10:03:53;;;;;;;1.77;1.10;;;;;;;1.36;100.00;97005.34;10304772;28;20109;-76
2022/01/31 10:09:02;;;;;;;3.53;1.50;;;;;;;1.38;100.00;97009.56;10312508;28;20038;-78
2022/01/31 10:19:45;;;;;;;2.15;1.33;;;;;;;1.65;100.00;96997.41;10311339;28;20474;-75
2022/01/31 10:24:50;;;;;;;1.75;1.35;;;;;;;1.78;100.00;97005.09;10312648;28;20069;-75
2022/01/31 10:29:55;;;;;;;2.38;1.23;;;;;;;1.98;100.00;96995.28;10459467;22;20157;-84
2022/01/31 10:35:04;;;;;;;2.53;1.20;;;;;;;2.19;100.00;96994.25;10482219;28;20602;-83
2022/01/31 10:45:39;;;;;;;3.35;1.23;;;;;;;2.45;100.00;96957.25;10490697;28;20057;-83
2022/01/31 10:56:00;;;;;;;3.90;1.23;;;;;;;2.46;100.00;96969.56;10502357;28;20045;-83
2022/01/31 11:01:13;;;;;;;2.50;1.17;;;;;;;2.50;100.00;96990.53;10494707;28;20557;-85
2022/01/31 11:06:19;;;;;;;1.67;1.00;;;;;;;2.63;100.00;96985.72;10503878;28;20061;-83
2022/01/31 11:11:22;;;;;;;3.10;1.40;;;;;;;2.62;100.00;96987.53;10504761;28;20583;-83
2022/01/31 11:16:26;;;;;;;6.63;1.80;;;;;;;2.70;100.00;96992.13;10505312;28;20053;-84
2022/01/31 11:21:34;;;;;;;3.92;1.50;;;;;;;2.77;100.00;96981.72;10507784;28;20040;-83
2022/01/31 11:26:39;;;;;;;2.33;1.27;;;;;;;2.84;100.00;96974.00;10510422;28;20044;-83
2022/01/31 11:31:42;;;;;;;3.85;1.30;;;;;;;2.83;100.00;96974.97;10487695;28;20095;-84
2022/01/31 11:36:47;;;;;;;2.42;1.30;;;;;;;2.88;100.00;96983.38;10490929;28;20070;-86
2022/01/31 11:41:55;;;;;;;4.15;1.50;;;;;;;2.98;100.00;96978.81;10482731;28;20051;-85
2022/01/31 11:47:02;;;;;;;3.45;1.40;;;;;;;3.00;100.00;96979.50;10491657;28;20492;-82
2022/01/31 11:52:08;;;;;;;2.17;1.38;;;;;;;3.12;100.00;96966.00;10502481;28;20157;-84
2022/01/31 11:57:16;;;;;;;2.22;1.20;;;;;;;3.17;100.00;96966.38;10485528;28;20645;-83
2022/01/31 12:02:21;;;;;;;2.97;1.30;;;;;;;3.27;100.00;96964.47;10490067;28;20044;-83
2022/01/31 12:07:39;;;;;;;2.33;1.00;;;;;;;3.13;100.00;96972.97;10485793;28;20049;-83
2022/01/31 12:12:52;;;;;;;2.88;1.13;;;;;;;3.07;100.00;96980.59;10490940;28;20036;-84
2022/01/31 12:18:00;;;;;;;2.15;1.13;;;;;;;3.03;100.00;96989.00;10497937;28;20052;-80
2022/01/31 12:23:22;;;;;;;2.33;0.82;;;;;;;2.91;100.00;96983.03;10489141;28;20048;-82
2022/01/31 12:28:36;;;;;;;2.85;0.85;;;;;;;2.86;100.00;96978.19;10483286;28;20102;-83
2022/01/31 12:33:43;;;;;;;2.88;0.90;;;;;;;2.85;100.00;96976.50;10496738;28;20057;-82
2022/01/31 12:38:48;;;;;;;1.08;0.90;;;;;;;2.88;100.00;96988.69;10497997;28;20052;-84
2022/01/31 12:43:56;;;;;;;1.20;1.10;;;;;;;2.94;100.00;96969.47;10495983;28;20036;-83
2022/01/31 12:49:10;;;;;;;1.73;0.90;;;;;;;3.00;100.00;96963.53;10496189;28;20051;-82
2022/01/31 12:54:23;;;;;;;3.35;1.33;;;;;;;3.03;100.00;96970.41;10505862;28;20040;-82
2022/01/31 12:59:26;;;;;;;2.30;1.00;;;;;;;3.00;100.00;96970.69;10492677;28;20060;-83
2022/01/31 13:04:30;;;;;;;0.93;0.80;;;;;;;3.04;100.00;96966.75;10495036;28;20086;-81
2022/01/31 13:09:39;;;;;;;0.98;0.88;;;;;;;3.10;100.00;96965.31;10498671;28;20108;-83
2022/01/31 13:14:48;;;;;;;1.45;0.85;;;;;;;3.21;100.00;96973.09;10499118;28;20044;-85
2022/01/31 13:19:54;;;;;;;0.73;0.57;;;;;;;3.32;100.00;96972.84;10503807;28;20098;-82
2022/01/31 13:25:16;;;;;;;0.60;0.60;;;;;;;3.42;100.00;96977.25;10497459;28;20083;-85
2022/01/31 13:36:02;;;;;;;0.73;0.50;;;;;;;3.48;100.00;96990.81;10507529;28;20067;-82
2022/01/31 13:41:08;;;;;;;0.57;0.50;;;;;;;3.51;100.00;97000.31;10498907;28;20063;-84
2022/01/31 13:46:19;;;;;;;0.57;0.57;;;;;;;3.52;100.00;97002.84;10502056;28;20045;-82
2022/01/31 13:51:30;;;;;;;0.50;0.40;;;;;;;3.49;100.00;97003.13;10511858;28;20548;-82
2022/01/31 13:56:38;;;;;;;0.40;0.40;;;;;;;3.48;100.00;97012.09;10485776;28;20044;-83
2022/01/31 14:01:41;;;;;;;0.40;0.40;;;;;;;3.44;100.00;97017.88;10490166;28;20063;-83
2022/01/31 14:06:45;;;;;;;0.40;0.40;;;;;;;3.43;100.00;97018.88;10491670;28;20059;-82
2022/01/31 14:11:51;;;;;;;0.50;0.50;;;;;;;3.39;100.00;97016.50;10487002;28;20055;-83
2022/01/31 14:16:55;;;;;;;0.50;0.50;;;;;;;3.37;100.00;97026.47;10487915;28;20417;-84
2022/01/31 14:21:58;;;;;;;0.82;0.60;;;;;;;3.38;100.00;97033.47;10487168;28;20053;-81
2022/01/31 14:27:05;;;;;;;1.20;0.60;;;;;;;3.44;100.00;97042.66;10489309;28;20047;-83
2022/01/31 14:32:10;;;;;;;0.55;0.40;;;;;;;3.47;100.00;97049.53;10497479;28;20049;-83
2022/01/31 14:37:20;;;;;;;0.30;0.30;;;;;;;3.44;100.00;97061.31;10485065;28;20045;-82
2022/01/31 14:42:48;;;;;;;0.30;0.30;;;;;;;3.38;100.00;97072.56;10484948;28;20045;-84
2022/01/31 14:47:55;;;;;;;0.47;0.47;;;;;;;3.35;100.00;97071.03;10488384;28;20511;-83
2022/01/31 14:53:09;;;;;;;0.32;0.30;;;;;;;3.28;100.00;97077.13;10488885;28;20056;-80
2022/01/31 14:58:14;;;;;;;0.40;0.40;;;;;;;3.21;100.00;97100.81;10492780;28;20496;-83
2022/01/31 15:03:22;;;;;;;0.57;0.30;;;;;;;3.20;100.00;97101.81;10492704;28;20057;-83
2022/01/31 15:08:26;;;;;;;0.40;0.40;;;;;;;3.16;100.00;97100.41;10487391;28;20049;-83
2022/01/31 15:13:30;;;;;;;0.32;0.32;;;;;;;3.08;100.00;97120.63;10490069;28;20055;-83
2022/01/31 15:18:37;;;;;;;0.65;0.40;;;;;;;3.07;100.00;97116.28;10492066;28;20175;-84
2022/01/31 15:23:49;;;;;;;1.60;0.40;;;;;;;3.06;100.00;97127.91;10509400;28;20524;-81
2022/01/31 15:28:58;;;;;;;0.40;0.40;;;;;;;3.03;100.00;97114.88;10476552;28;20071;-83
2022/01/31 15:34:02;;;;;;;0.60;0.60;;;;;;;3.08;100.00;97125.94;10446137;28;20057;-83
2022/01/31 15:39:05;;;;;;;0.40;0.40;;;;;;;3.03;100.00;97153.97;10433875;28;20049;-82
2022/01/31 15:44:15;;;;;;;0.50;0.50;;;;;;;2.99;100.00;97161.41;10431857;28;20056;-82
2022/01/31 15:49:18;;;;;;;0.30;0.30;;;;;;;3.00;100.00;97159.56;10450346;28;20037;-83
2022/01/31 15:54:21;;;;;;;0.40;0.40;;;;;;;2.98;100.00;97150.91;10427431;28;20051;-83
2022/01/31 15:59:28;;;;;;;0.95;0.30;;;;;;;2.92;100.00;97166.47;10453667;28;20041;-80
2022/01/31 16:04:31;;;;;;;0.38;0.38;;;;;;;2.98;100.00;97164.19;10423021;28;20064;-83
2022/01/31 16:09:34;;;;;;;0.28;0.28;;;;;;;2.98;100.00;97190.78;10440229;28;20084;-84
2022/01/31 16:14:39;;;;;;;0.60;0.40;;;;;;;2.92;100.00;97178.91;10492056;28;20045;-83
2022/01/31 16:19:42;;;;;;;0.40;0.40;;;;;;;2.91;100.00;97193.19;10458641;28;20053;-82
2022/01/31 16:24:46;;;;;;;0.40;0.40;;;;;;;2.87;100.00;97205.13;10468478;28;20049;-84
2022/01/31 16:29:53;;;;;;;0.30;0.30;;;;;;;2.89;100.00;97209.31;10473477;28;20043;-84
2022/01/31 16:34:57;;;;;;;0.40;0.40;;;;;;;2.88;100.00;97225.41;10489796;28;20056;-82
2022/01/31 16:40:00;;;;;;;0.50;0.50;;;;;;;2.87;100.00;97226.41;10491122;28;20128;-82
2022/01/31 16:45:09;;;;;;;0.60;0.60;;;;;;;2.86;100.00;97228.19;10488301;28;20032;-83
2022/01/31 16:50:13;;;;;;;1.05;0.68;;;;;;;2.84;100.00;97234.66;10485620;28;20489;-82
2022/01/31 16:55:17;;;;;;;0.60;0.60;;;;;;;2.81;100.00;97235.78;10490843;28;20055;-82
2022/01/31 17:00:23;;;;;;;0.88;0.80;;;;;;;2.83;100.00;97235.63;10490752;28;20044;-84
2022/01/31 17:05:26;;;;;;;0.75;0.55;;;;;;;2.82;100.00;97240.13;10493570;28;20080;-83
2022/01/31 17:10:30;;;;;;;2.65;0.80;;;;;;;2.82;100.00;97250.75;10491113;28;20040;-81
2022/01/31 17:15:35;;;;;;;0.80;0.80;;;;;;;2.81;100.00;97250.88;10506271;28;20095;-83
2022/01/31 17:20:40;;;;;;;1.40;0.93;;;;;;;2.85;100.00;97262.94;10486118;28;20480;-81
2022/01/31 17:25:42;;;;;;;0.98;0.90;;;;;;;2.88;100.00;97273.31;10481507;28;20144;-82
2022/01/31 17:30:47;;;;;;;1.17;0.90;;;;;;;2.91;100.00;97280.97;10486929;28;20051;-83
2022/01/31 17:35:50;;;;;;;0.80;0.80;;;;;;;2.87;100.00;97275.09;10507418;28;20052;-80
2022/01/31 17:40:53;;;;;;;1.10;1.00;;;;;;;2.91;100.00;97302.25;10490821;28;20055;-81
2022/01/31 17:45:58;;;;;;;1.10;0.90;;;;;;;2.91;100.00;97307.56;10482816;28;20083;-83
2022/01/31 17:51:01;;;;;;;0.90;0.90;;;;;;;2.87;100.00;97316.84;10487995;28;20051;-84
2022/01/31 17:56:05;;;;;;;1.27;1.00;;;;;;;2.86;100.00;97304.53;10476113;28;20044;-84
2022/01/31 18:01:09;;;;;;;1.33;1.23;;;;;;;2.87;100.00;97315.00;10473461;28;20045;-82
2022/01/31 18:06:12;;;;;;;2.50;1.40;;;;;;;2.88;100.00;97334.47;10477826;28;20497;-83
2022/01/31 18:11:15;;;;;;;1.42;1.33;;;;;;;2.87;100.00;97338.94;10486303;28;20371;-84
2022/01/31 18:16:20;;;;;;;1.60;1.50;;;;;;;2.83;100.00;97339.38;10483410;28;20055;-85
2022/01/31 18:21:23;;;;;;;2.13;1.92;;;;;;;2.77;100.00;97354.06;10483192;28;20157;-85
2022/01/31 18:26:26;;;;;;;2.58;2.20;;;;;;;2.72;100.00;97389.06;10469832;28;20044;-84
2022/01/31 18:31:31;;;;;;;3.45;2.60;;;;;;;2.68;100.00;97392.97;10468592;28;20064;-84
2022/01/31 18:36:34;;;;;;;3.05;2.50;;;;;;;2.66;100.00;97407.38;10470078;28;20052;-84
2022/01/31 18:41:36;;;;;;;3.13;2.83;;;;;;;2.62;100.00;97425.44;10449544;28;20041;-86
2022/01/31 18:46:46;;;;;;;5.30;3.78;;;;;;;2.60;100.00;97441.50;10461312;28;20052;-80
2022/01/31 18:51:55;;;;;;;1.20;1.10;;;;;;;2.18;100.00;97454.91;10475390;28;20136;-85
2022/01/31 18:56:58;;;;;;;1.13;1.13;;;;;;;1.81;100.00;97458.91;10471200;28;20098;-84
2022/01/31 19:02:03;;;;;;;1.20;1.20;;;;;;;1.66;100.00;97458.38;10493446;28;20062;-81
2022/01/31 19:07:06;;;;;;;1.33;1.30;;;;;;;1.40;100.00;97476.47;10479844;28;20532;-83
2022/01/31 19:12:16;;;;;;;2.40;2.20;;;;;;;1.34;100.00;97490.25;10474454;28;20041;-83
2022/01/31 19:17:20;;;;;;;4.65;4.25;;;;;;;1.19;100.00;97505.59;10496043;28;20071;-82
2022/01/31 19:22:23;;;;;;;2.75;2.55;;;;;;;1.08;100.00;97519.75;10476273;28;20044;-84
2022/01/31 19:27:26;;;;;;;4.07;3.78;;;;;;;1.06;100.00;97526.97;10489608;28;20071;-84
2022/01/31 19:32:31;;;;;;;5.68;5.15;;;;;;;0.99;100.00;97534.59;10475658;28;20094;-84
2022/01/31 19:37:34;;;;;;;6.00;5.50;;;;;;;0.92;100.00;97539.53;10478762;28;20505;-84
2022/01/31 19:47:59;;;;;;;9.25;8.00;;;;;;;0.73;100.00;97558.72;10496548;28;20496;-84
2022/01/31 19:53:02;;;;;;;11.43;8.93;;;;;;;0.68;100.00;97582.09;10469264;28;20059;-84
2022/01/31 19:58:05;;;;;;;23.13;14.13;;;;;;;0.64;100.00;97591.25;10467338;28;20048;-84
2022/01/31 20:03:10;;;;;;;35.13;18.35;;;;;;;0.60;100.00;97601.25;10500454;28;20128;-85
2022/01/31 20:08:13;;;;;;;36.90;19.02;;;;;;;0.59;100.00;97620.75;10471647;28;20040;-85
2022/01/31 20:13:18;;;;;;;28.92;18.02;;;;;;;0.61;100.00;97632.09;10484202;28;20040;-83
2022/01/31 20:18:25;;;;;;;25.73;16.40;;;;;;;0.60;100.00;97654.25;10473081;28;20505;-83
2022/01/31 20:23:29;;;;;;;26.38;16.85;;;;;;;0.64;100.00;97664.63;10479939;28;20047;-83
2022/01/31 20:28:34;;;;;;;27.13;17.60;;;;;;;0.69;100.00;97678.38;10470312;28;20045;-83
2022/01/31 20:33:40;;;;;;;21.73;14.88;;;;;;;0.68;100.00;97695.22;10479399;28;20058;-83
2022/01/31 20:38:55;;;;;;;20.65;14.40;;;;;;;0.69;100.00;97715.47;10480549;28;20600;-86
2022/01/31 20:44:08;;;;;;;18.08;13.20;;;;;;;0.70;100.00;97735.72;10476519;28;20131;-84
2022/01/31 20:49:14;;;;;;;22.27;15.38;;;;;;;0.69;100.00;97742.84;10476115;28;20098;-85
2022/01/31 20:54:18;;;;;;;16.77;11.90;;;;;;;0.69;100.00;97760.53;10487874;28;20044;-85
2022/01/31 20:59:22;;;;;;;17.67;13.13;;;;;;;0.67;100.00;97759.81;10497002;28;20216;-84
2022/01/31 21:04:28;;;;;;;16.65;12.65;;;;;;;0.66;100.00;97785.50;10471987;28;20052;-86
2022/01/31 21:09:36;;;;;;;19.92;13.63;;;;;;;0.70;100.00;97796.72;10477118;28;20050;-84
2022/01/31 21:14:40;;;;;;;27.15;17.98;;;;;;;0.70;100.00;97794.06;10482670;28;20955;-84
2022/01/31 21:19:45;;;;;;;28.13;19.25;;;;;;;0.69;100.00;97803.81;10476228;28;20068;-84
2022/01/31 21:24:49;;;;;;;30.75;20.05;;;;;;;0.66;100.00;97805.84;10456794;28;20049;-86
2022/01/31 21:29:53;;;;;;;28.42;19.50;;;;;;;0.68;100.00;97809.22;10458156;28;20124;-84
2022/01/31 21:34:59;;;;;;;22.92;16.63;;;;;;;0.60;100.00;97813.31;10453351;28;20068;-85
2022/01/31 21:40:02;;;;;;;30.73;18.73;;;;;;;0.68;100.00;97818.03;10465485;28;20079;-84
2022/01/31 21:45:08;;;;;;;31.17;19.10;;;;;;;0.63;100.00;97837.91;10426406;28;20058;-86
2022/01/31 21:50:14;;;;;;;31.48;18.65;;;;;;;0.63;100.00;97838.72;10435464;28;20086;-85
2022/01/31 21:55:19;;;;;;;30.60;18.85;;;;;;;0.64;100.00;97848.38;10419202;28;20063;-85
2022/01/31 22:00:23;;;;;;;31.63;19.45;;;;;;;0.57;100.00;97868.34;10428880;28;20045;-83
2022/01/31 22:05:28;;;;;;;31.15;18.73;;;;;;;0.61;100.00;97877.75;10435466;28;20049;-85
2022/01/31 22:10:46;;;;;;;30.38;19.73;;;;;;;0.61;100.00;97883.06;10426389;28;20136;-84
2022/01/31 22:15:50;;;;;;;29.77;19.27;;;;;;;0.56;100.00;97904.59;10431975;28;20067;-84
2022/01/31 22:20:58;;;;;;;32.08;20.48;;;;;;;0.59;100.00;97912.34;10437243;28;20135;-84
2022/01/31 22:26:02;;;;;;;30.75;19.17;;;;;;;0.59;100.00;97930.88;10449044;28;20127;-85
2022/01/31 22:31:06;;;;;;;33.63;19.35;;;;;;;0.58;100.00;97941.63;10432560;28;20053;-84
2022/01/31 22:36:11;;;;;;;32.40;19.73;;;;;;;0.60;100.00;97935.25;10436476;28;20063;-85
2022/01/31 22:41:16;;;;;;;28.98;18.60;;;;;;;0.57;100.00;97946.06;10452609;28;20065;-84
2022/01/31 22:46:20;;;;;;;26.60;17.35;;;;;;;0.49;100.00;97932.50;10431955;28;20041;-84
2022/01/31 22:51:27;;;;;;;27.83;18.33;;;;;;;0.53;100.00;97939.25;10457296;28;20131;-84
2022/01/31 22:56:32;;;;;;;31.00;18.23;;;;;;;0.45;100.00;97957.53;10435455;28;20463;-84
2022/01/31 23:01:35;;;;;;;27.60;16.58;;;;;;;0.41;100.00;97964.84;10451710;28;20041;-84
2022/01/31 23:06:41;;;;;;;30.50;17.73;;;;;;;0.41;100.00;97972.81;10432222;28;20063;-83
2022/01/31 23:11:46;;;;;;;29.63;17.95;;;;;;;0.40;100.00;97981.72;10459700;28;20056;-83
2022/01/31 23:16:54;;;;;;;30.00;17.08;;;;;;;0.38;100.00;97978.31;10440851;28;20443;-87
2022/01/31 23:22:27;;;;;;;27.20;17.50;;;;;;;0.38;100.00;97977.47;10457245;28;20041;-83
2022/01/31 23:54:26;;;;;;;21.98;13.10;;;;;;;0.30;100.00;98007.16;10440908;28;20063;-84
2022/01/31 23:59:43;;;;;;;23.42;13.23;;;;;;;0.49;100.00;97997.91;10446387;28;20127;-87
